sensor_id;sensor_type;location;lat;lon;timestamp;P1;durP1;ratioP1;P2;durP2;ratioP2
13704;SDS011;6924;52.122;9.952;2022-10-31T00:01:54;4.83;;;2.93;;
13704;SDS011;6924;52.122;9.952;2022-10-31T00:04:20;3.20;;;2.97;;
13704;SDS011;6924;52.122;9.952;2022-10-31T00:06:47;5.60;;;2.90;;
13704;SDS011;6924;52.122;9.952;2022-10-31T00:09:13;3.20;;;2.67;;
13704;SDS011;6924;52.122;9.952;2022-10-31T00:11:40;3.63;;;2.27;;
13704;SDS011;6924;52.122;9.952;2022-10-31T00:14:06;3.60;;;2.87;;
13704;SDS011;6924;52.122;9.952;2022-10-31T00:16:34;3.77;;;3.10;;
13704;SDS011;6924;52.122;9.952;2022-10-31T00:19:02;2.83;;;2.63;;
13704;SDS011;6924;52.122;9.952;2022-10-31T00:21:29;3.20;;;2.50;;
13704;SDS011;6924;52.122;9.952;2022-10-31T00:23:57;4.63;;;3.10;;
13704;SDS011;6924;52.122;9.952;2022-10-31T00:26:23;3.40;;;2.83;;
13704;SDS011;6924;52.122;9.952;2022-10-31T00:28:50;3.60;;;3.00;;
13704;SDS011;6924;52.122;9.952;2022-10-31T00:31:17;3.67;;;2.40;;
13704;SDS011;6924;52.122;9.952;2022-10-31T00:33:44;6.17;;;2.80;;
13704;SDS011;6924;52.122;9.952;2022-10-31T00:36:12;4.77;;;2.40;;
13704;SDS011;6924;52.122;9.952;2022-10-31T00:38:40;6.73;;;3.10;;
13704;SDS011;6924;52.122;9.952;2022-10-31T00:41:07;3.17;;;2.50;;
13704;SDS011;6924;52.122;9.952;2022-10-31T00:43:33;3.77;;;3.10;;
13704;SDS011;6924;52.122;9.952;2022-10-31T00:46:00;4.90;;;2.63;;
13704;SDS011;6924;52.122;9.952;2022-10-31T00:48:27;4.50;;;2.77;;
13704;SDS011;6924;52.122;9.952;2022-10-31T00:50:54;5.93;;;3.37;;
13704;SDS011;6924;52.122;9.952;2022-10-31T00:53:21;6.63;;;4.03;;
13704;SDS011;6924;52.122;9.952;2022-10-31T00:55:48;4.40;;;3.00;;
13704;SDS011;6924;52.122;9.952;2022-10-31T00:58:14;6.27;;;2.87;;
13704;SDS011;6924;52.122;9.952;2022-10-31T01:00:41;4.67;;;3.87;;
13704;SDS011;6924;52.122;9.952;2022-10-31T01:03:07;5.20;;;3.07;;
13704;SDS011;6924;52.122;9.952;2022-10-31T01:05:34;7.90;;;3.80;;
13704;SDS011;6924;52.122;9.952;2022-10-31T01:08:02;9.47;;;2.90;;
13704;SDS011;6924;52.122;9.952;2022-10-31T01:10:29;4.23;;;3.10;;
13704;SDS011;6924;52.122;9.952;2022-10-31T01:12:55;3.40;;;2.83;;
13704;SDS011;6924;52.122;9.952;2022-10-31T01:15:22;9.13;;;3.93;;
13704;SDS011;6924;52.122;9.952;2022-10-31T01:17:49;5.67;;;3.33;;
13704;SDS011;6924;52.122;9.952;2022-10-31T01:20:16;3.67;;;2.93;;
13704;SDS011;6924;52.122;9.952;2022-10-31T01:22:43;4.53;;;3.07;;
13704;SDS011;6924;52.122;9.952;2022-10-31T01:25:11;7.50;;;3.03;;
13704;SDS011;6924;52.122;9.952;2022-10-31T01:27:38;5.20;;;3.07;;
13704;SDS011;6924;52.122;9.952;2022-10-31T01:30:05;7.97;;;3.20;;
13704;SDS011;6924;52.122;9.952;2022-10-31T01:32:32;5.53;;;3.30;;
13704;SDS011;6924;52.122;9.952;2022-10-31T01:34:58;4.50;;;3.17;;
13704;SDS011;6924;52.122;9.952;2022-10-31T01:37:25;6.17;;;3.37;;
13704;SDS011;6924;52.122;9.952;2022-10-31T01:39:51;4.40;;;2.87;;
13704;SDS011;6924;52.122;9.952;2022-10-31T01:42:20;4.67;;;3.60;;
13704;SDS011;6924;52.122;9.952;2022-10-31T01:44:55;5.13;;;2.93;;
13704;SDS011;6924;52.122;9.952;2022-10-31T01:47:26;4.57;;;2.90;;
13704;SDS011;6924;52.122;9.952;2022-10-31T01:49:59;3.67;;;3.33;;
13704;SDS011;6924;52.122;9.952;2022-10-31T01:52:29;5.03;;;3.60;;
13704;SDS011;6924;52.122;9.952;2022-10-31T01:54:59;6.03;;;3.00;;
13704;SDS011;6924;52.122;9.952;2022-10-31T01:57:30;6.60;;;3.77;;
13704;SDS011;6924;52.122;9.952;2022-10-31T01:59:59;8.83;;;4.67;;
13704;SDS011;6924;52.122;9.952;2022-10-31T02:02:28;7.80;;;4.97;;
13704;SDS011;6924;52.122;9.952;2022-10-31T02:04:56;6.13;;;4.00;;
13704;SDS011;6924;52.122;9.952;2022-10-31T02:07:25;7.73;;;4.23;;
13704;SDS011;6924;52.122;9.952;2022-10-31T02:09:56;9.60;;;4.80;;
13704;SDS011;6924;52.122;9.952;2022-10-31T02:12:23;9.80;;;5.10;;
13704;SDS011;6924;52.122;9.952;2022-10-31T02:14:52;7.17;;;4.90;;
13704;SDS011;6924;52.122;9.952;2022-10-31T02:17:19;6.80;;;4.70;;
13704;SDS011;6924;52.122;9.952;2022-10-31T02:19:46;8.40;;;5.30;;
13704;SDS011;6924;52.122;9.952;2022-10-31T02:22:21;5.97;;;4.17;;
13704;SDS011;6924;52.122;9.952;2022-10-31T02:24:58;7.57;;;4.40;;
13704;SDS011;6924;52.122;9.952;2022-10-31T02:27:55;6.80;;;3.77;;
13704;SDS011;6924;52.122;9.952;2022-10-31T02:30:52;7.87;;;4.73;;
13704;SDS011;6924;52.122;9.952;2022-10-31T02:33:28;6.33;;;4.33;;
13704;SDS011;6924;52.122;9.952;2022-10-31T02:36:03;5.10;;;4.60;;
13704;SDS011;6924;52.122;9.952;2022-10-31T02:38:38;7.03;;;4.97;;
13704;SDS011;6924;52.122;9.952;2022-10-31T02:41:15;10.17;;;6.13;;
13704;SDS011;6924;52.122;9.952;2022-10-31T02:43:49;5.53;;;4.73;;
13704;SDS011;6924;52.122;9.952;2022-10-31T02:46:30;8.77;;;5.40;;
13704;SDS011;6924;52.122;9.952;2022-10-31T02:49:02;9.03;;;5.43;;
13704;SDS011;6924;52.122;9.952;2022-10-31T02:51:34;7.13;;;5.37;;
13704;SDS011;6924;52.122;9.952;2022-10-31T02:54:01;9.77;;;5.70;;
13704;SDS011;6924;52.122;9.952;2022-10-31T02:56:27;11.33;;;5.33;;
13704;SDS011;6924;52.122;9.952;2022-10-31T02:58:54;11.13;;;5.67;;
13704;SDS011;6924;52.122;9.952;2022-10-31T03:01:33;7.27;;;5.73;;
13704;SDS011;6924;52.122;9.952;2022-10-31T03:04:16;6.20;;;5.30;;
13704;SDS011;6924;52.122;9.952;2022-10-31T03:06:56;7.73;;;5.77;;
13704;SDS011;6924;52.122;9.952;2022-10-31T03:09:32;8.77;;;6.23;;
13704;SDS011;6924;52.122;9.952;2022-10-31T03:12:07;8.27;;;6.07;;
13704;SDS011;6924;52.122;9.952;2022-10-31T03:14:39;6.83;;;5.93;;
13704;SDS011;6924;52.122;9.952;2022-10-31T03:17:09;10.83;;;5.67;;
13704;SDS011;6924;52.122;9.952;2022-10-31T03:19:42;5.97;;;5.03;;
13704;SDS011;6924;52.122;9.952;2022-10-31T03:22:12;7.17;;;5.57;;
13704;SDS011;6924;52.122;9.952;2022-10-31T03:24:42;8.17;;;6.10;;
13704;SDS011;6924;52.122;9.952;2022-10-31T03:27:10;6.70;;;5.77;;
13704;SDS011;6924;52.122;9.952;2022-10-31T03:29:40;8.83;;;5.43;;
13704;SDS011;6924;52.122;9.952;2022-10-31T03:32:12;7.77;;;5.67;;
13704;SDS011;6924;52.122;9.952;2022-10-31T03:34:43;6.80;;;5.83;;
13704;SDS011;6924;52.122;9.952;2022-10-31T03:37:13;9.00;;;5.43;;
13704;SDS011;6924;52.122;9.952;2022-10-31T03:39:42;7.03;;;5.47;;
13704;SDS011;6924;52.122;9.952;2022-10-31T03:42:12;6.30;;;5.70;;
13704;SDS011;6924;52.122;9.952;2022-10-31T03:44:42;7.77;;;6.00;;
13704;SDS011;6924;52.122;9.952;2022-10-31T03:47:17;7.40;;;6.20;;
13704;SDS011;6924;52.122;9.952;2022-10-31T03:49:44;7.90;;;5.53;;
13704;SDS011;6924;52.122;9.952;2022-10-31T03:52:13;7.13;;;5.33;;
13704;SDS011;6924;52.122;9.952;2022-10-31T03:54:46;9.30;;;5.40;;
13704;SDS011;6924;52.122;9.952;2022-10-31T03:57:21;8.40;;;5.37;;
13704;SDS011;6924;52.122;9.952;2022-10-31T03:59:53;9.30;;;6.07;;
13704;SDS011;6924;52.122;9.952;2022-10-31T04:02:28;6.70;;;5.57;;
13704;SDS011;6924;52.122;9.952;2022-10-31T04:04:57;6.83;;;5.90;;
13704;SDS011;6924;52.122;9.952;2022-10-31T04:07:25;9.70;;;6.60;;
13704;SDS011;6924;52.122;9.952;2022-10-31T04:09:54;6.43;;;5.83;;
13704;SDS011;6924;52.122;9.952;2022-10-31T04:12:23;10.13;;;6.33;;
13704;SDS011;6924;52.122;9.952;2022-10-31T04:14:52;8.47;;;6.57;;
13704;SDS011;6924;52.122;9.952;2022-10-31T04:17:21;7.50;;;5.40;;
13704;SDS011;6924;52.122;9.952;2022-10-31T04:19:51;9.73;;;6.80;;
13704;SDS011;6924;52.122;9.952;2022-10-31T04:22:17;7.33;;;5.60;;
13704;SDS011;6924;52.122;9.952;2022-10-31T04:24:44;7.20;;;6.10;;
13704;SDS011;6924;52.122;9.952;2022-10-31T04:27:10;8.00;;;6.60;;
13704;SDS011;6924;52.122;9.952;2022-10-31T04:29:37;7.77;;;6.07;;
13704;SDS011;6924;52.122;9.952;2022-10-31T04:32:03;7.87;;;7.10;;
13704;SDS011;6924;52.122;9.952;2022-10-31T04:34:30;7.27;;;5.70;;
13704;SDS011;6924;52.122;9.952;2022-10-31T04:36:58;9.10;;;6.27;;
13704;SDS011;6924;52.122;9.952;2022-10-31T04:39:24;10.53;;;6.97;;
13704;SDS011;6924;52.122;9.952;2022-10-31T04:41:51;11.97;;;6.40;;
13704;SDS011;6924;52.122;9.952;2022-10-31T04:44:17;5.93;;;5.43;;
13704;SDS011;6924;52.122;9.952;2022-10-31T04:46:44;6.63;;;5.93;;
13704;SDS011;6924;52.122;9.952;2022-10-31T04:49:11;7.87;;;5.80;;
13704;SDS011;6924;52.122;9.952;2022-10-31T04:51:37;9.00;;;5.73;;
13704;SDS011;6924;52.122;9.952;2022-10-31T04:54:05;7.97;;;6.37;;
13704;SDS011;6924;52.122;9.952;2022-10-31T04:56:32;6.77;;;6.10;;
13704;SDS011;6924;52.122;9.952;2022-10-31T04:58:58;7.07;;;5.97;;
13704;SDS011;6924;52.122;9.952;2022-10-31T05:01:25;7.37;;;5.63;;
13704;SDS011;6924;52.122;9.952;2022-10-31T05:03:52;8.43;;;5.40;;
13704;SDS011;6924;52.122;9.952;2022-10-31T05:06:19;9.47;;;6.07;;
13704;SDS011;6924;52.122;9.952;2022-10-31T05:08:45;6.53;;;5.37;;
13704;SDS011;6924;52.122;9.952;2022-10-31T05:11:13;7.17;;;6.03;;
13704;SDS011;6924;52.122;9.952;2022-10-31T05:13:40;7.70;;;5.67;;
13704;SDS011;6924;52.122;9.952;2022-10-31T05:16:06;7.53;;;5.60;;
13704;SDS011;6924;52.122;9.952;2022-10-31T05:18:33;7.87;;;5.70;;
13704;SDS011;6924;52.122;9.952;2022-10-31T05:20:59;6.83;;;6.13;;
13704;SDS011;6924;52.122;9.952;2022-10-31T05:23:26;6.13;;;5.57;;
13704;SDS011;6924;52.122;9.952;2022-10-31T05:25:52;6.77;;;6.07;;
13704;SDS011;6924;52.122;9.952;2022-10-31T05:28:20;8.47;;;6.00;;
13704;SDS011;6924;52.122;9.952;2022-10-31T05:30:47;6.93;;;6.13;;
13704;SDS011;6924;52.122;9.952;2022-10-31T05:33:13;7.03;;;6.33;;
13704;SDS011;6924;52.122;9.952;2022-10-31T05:35:40;7.43;;;6.03;;
13704;SDS011;6924;52.122;9.952;2022-10-31T05:38:07;8.27;;;5.83;;
13704;SDS011;6924;52.122;9.952;2022-10-31T05:40:33;12.27;;;7.30;;
13704;SDS011;6924;52.122;9.952;2022-10-31T05:43:00;8.37;;;6.70;;
13704;SDS011;6924;52.122;9.952;2022-10-31T05:45:27;7.20;;;5.80;;
13704;SDS011;6924;52.122;9.952;2022-10-31T05:47:55;6.67;;;5.70;;
13704;SDS011;6924;52.122;9.952;2022-10-31T05:50:23;9.70;;;6.00;;
13704;SDS011;6924;52.122;9.952;2022-10-31T05:52:54;7.30;;;6.00;;
13704;SDS011;6924;52.122;9.952;2022-10-31T05:55:21;6.37;;;5.77;;
13704;SDS011;6924;52.122;9.952;2022-10-31T05:57:48;12.60;;;7.13;;
13704;SDS011;6924;52.122;9.952;2022-10-31T06:00:14;10.50;;;6.87;;
13704;SDS011;6924;52.122;9.952;2022-10-31T06:02:42;7.33;;;6.60;;
13704;SDS011;6924;52.122;9.952;2022-10-31T06:05:09;6.57;;;5.63;;
13704;SDS011;6924;52.122;9.952;2022-10-31T06:07:35;8.87;;;6.00;;
13704;SDS011;6924;52.122;9.952;2022-10-31T06:10:02;9.53;;;6.27;;
13704;SDS011;6924;52.122;9.952;2022-10-31T06:12:31;8.13;;;6.67;;
13704;SDS011;6924;52.122;9.952;2022-10-31T06:14:57;8.23;;;6.57;;
13704;SDS011;6924;52.122;9.952;2022-10-31T06:17:24;8.93;;;6.50;;
13704;SDS011;6924;52.122;9.952;2022-10-31T06:19:52;8.03;;;6.07;;
13704;SDS011;6924;52.122;9.952;2022-10-31T06:22:18;8.80;;;5.83;;
13704;SDS011;6924;52.122;9.952;2022-10-31T06:24:45;7.17;;;5.47;;
13704;SDS011;6924;52.122;9.952;2022-10-31T06:27:11;8.60;;;5.80;;
13704;SDS011;6924;52.122;9.952;2022-10-31T06:29:38;11.20;;;7.13;;
13704;SDS011;6924;52.122;9.952;2022-10-31T06:32:04;8.13;;;6.80;;
13704;SDS011;6924;52.122;9.952;2022-10-31T06:34:31;7.73;;;7.03;;
13704;SDS011;6924;52.122;9.952;2022-10-31T06:36:59;10.67;;;6.07;;
13704;SDS011;6924;52.122;9.952;2022-10-31T06:39:25;11.37;;;6.33;;
13704;SDS011;6924;52.122;9.952;2022-10-31T06:41:52;7.17;;;6.47;;
13704;SDS011;6924;52.122;9.952;2022-10-31T06:44:18;14.93;;;7.27;;
13704;SDS011;6924;52.122;9.952;2022-10-31T06:46:45;8.00;;;6.67;;
13704;SDS011;6924;52.122;9.952;2022-10-31T06:49:12;10.27;;;7.00;;
13704;SDS011;6924;52.122;9.952;2022-10-31T06:51:39;7.20;;;6.23;;
13704;SDS011;6924;52.122;9.952;2022-10-31T06:54:07;12.10;;;7.23;;
13704;SDS011;6924;52.122;9.952;2022-10-31T06:56:33;7.10;;;6.43;;
13704;SDS011;6924;52.122;9.952;2022-10-31T06:59:00;10.03;;;6.70;;
13704;SDS011;6924;52.122;9.952;2022-10-31T07:01:26;13.60;;;8.73;;
13704;SDS011;6924;52.122;9.952;2022-10-31T07:03:53;10.90;;;8.40;;
13704;SDS011;6924;52.122;9.952;2022-10-31T07:06:19;12.03;;;8.40;;
13704;SDS011;6924;52.122;9.952;2022-10-31T07:08:46;11.37;;;7.70;;
13704;SDS011;6924;52.122;9.952;2022-10-31T07:11:14;10.17;;;8.40;;
13704;SDS011;6924;52.122;9.952;2022-10-31T07:13:40;9.67;;;8.17;;
13704;SDS011;6924;52.122;9.952;2022-10-31T07:16:07;9.77;;;7.07;;
13704;SDS011;6924;52.122;9.952;2022-10-31T07:18:37;12.20;;;7.77;;
13704;SDS011;6924;52.122;9.952;2022-10-31T07:21:03;14.40;;;8.70;;
13704;SDS011;6924;52.122;9.952;2022-10-31T07:23:30;8.57;;;7.70;;
13704;SDS011;6924;52.122;9.952;2022-10-31T07:25:57;13.50;;;8.13;;
13704;SDS011;6924;52.122;9.952;2022-10-31T07:28:26;11.10;;;7.73;;
13704;SDS011;6924;52.122;9.952;2022-10-31T07:30:54;11.10;;;7.93;;
13704;SDS011;6924;52.122;9.952;2022-10-31T07:33:21;12.27;;;7.83;;
13704;SDS011;6924;52.122;9.952;2022-10-31T07:35:48;8.73;;;7.87;;
13704;SDS011;6924;52.122;9.952;2022-10-31T07:38:15;12.03;;;7.23;;
13704;SDS011;6924;52.122;9.952;2022-10-31T07:40:42;14.50;;;7.23;;
13704;SDS011;6924;52.122;9.952;2022-10-31T07:43:08;9.30;;;8.13;;
13704;SDS011;6924;52.122;9.952;2022-10-31T07:45:38;8.97;;;7.77;;
13704;SDS011;6924;52.122;9.952;2022-10-31T07:48:05;8.43;;;7.63;;
13704;SDS011;6924;52.122;9.952;2022-10-31T07:50:32;9.23;;;7.93;;
13704;SDS011;6924;52.122;9.952;2022-10-31T07:52:59;10.33;;;7.90;;
13704;SDS011;6924;52.122;9.952;2022-10-31T07:55:27;14.07;;;8.17;;
13704;SDS011;6924;52.122;9.952;2022-10-31T07:57:57;8.67;;;7.77;;
13704;SDS011;6924;52.122;9.952;2022-10-31T08:00:24;10.37;;;7.87;;
13704;SDS011;6924;52.122;9.952;2022-10-31T08:02:59;12.77;;;8.73;;
13704;SDS011;6924;52.122;9.952;2022-10-31T08:05:27;9.17;;;7.97;;
13704;SDS011;6924;52.122;9.952;2022-10-31T08:07:53;10.10;;;9.07;;
13704;SDS011;6924;52.122;9.952;2022-10-31T08:10:20;9.80;;;8.73;;
13704;SDS011;6924;52.122;9.952;2022-10-31T08:12:54;12.83;;;8.83;;
13704;SDS011;6924;52.122;9.952;2022-10-31T08:15:21;13.40;;;9.33;;
13704;SDS011;6924;52.122;9.952;2022-10-31T08:17:48;14.03;;;9.10;;
13704;SDS011;6924;52.122;9.952;2022-10-31T08:20:16;10.73;;;9.27;;
13704;SDS011;6924;52.122;9.952;2022-10-31T08:22:42;14.27;;;8.30;;
13704;SDS011;6924;52.122;9.952;2022-10-31T08:25:09;12.60;;;8.90;;
13704;SDS011;6924;52.122;9.952;2022-10-31T08:27:35;12.00;;;9.50;;
13704;SDS011;6924;52.122;9.952;2022-10-31T08:30:02;17.43;;;10.77;;
13704;SDS011;6924;52.122;9.952;2022-10-31T08:32:29;11.97;;;9.47;;
13704;SDS011;6924;52.122;9.952;2022-10-31T08:34:56;15.17;;;10.30;;
13704;SDS011;6924;52.122;9.952;2022-10-31T08:37:24;13.77;;;8.87;;
13704;SDS011;6924;52.122;9.952;2022-10-31T08:39:50;14.70;;;9.73;;
13704;SDS011;6924;52.122;9.952;2022-10-31T08:42:17;10.57;;;8.70;;
13704;SDS011;6924;52.122;9.952;2022-10-31T08:44:43;10.67;;;8.20;;
13704;SDS011;6924;52.122;9.952;2022-10-31T08:47:10;11.87;;;9.17;;
13704;SDS011;6924;52.122;9.952;2022-10-31T08:49:36;11.17;;;8.93;;
13704;SDS011;6924;52.122;9.952;2022-10-31T08:52:03;10.87;;;7.93;;
13704;SDS011;6924;52.122;9.952;2022-10-31T08:54:31;9.40;;;7.73;;
13704;SDS011;6924;52.122;9.952;2022-10-31T08:56:58;12.60;;;9.33;;
13704;SDS011;6924;52.122;9.952;2022-10-31T08:59:24;11.63;;;10.03;;
13704;SDS011;6924;52.122;9.952;2022-10-31T09:01:51;15.00;;;9.60;;
13704;SDS011;6924;52.122;9.952;2022-10-31T09:04:17;12.63;;;10.03;;
13704;SDS011;6924;52.122;9.952;2022-10-31T09:06:44;11.40;;;9.70;;
13704;SDS011;6924;52.122;9.952;2022-10-31T09:09:10;13.53;;;11.00;;
13704;SDS011;6924;52.122;9.952;2022-10-31T09:11:38;13.63;;;9.73;;
13704;SDS011;6924;52.122;9.952;2022-10-31T09:14:05;12.07;;;10.37;;
13704;SDS011;6924;52.122;9.952;2022-10-31T09:16:32;13.80;;;10.13;;
13704;SDS011;6924;52.122;9.952;2022-10-31T09:18:58;10.33;;;9.33;;
13704;SDS011;6924;52.122;9.952;2022-10-31T09:21:25;12.33;;;9.93;;
13704;SDS011;6924;52.122;9.952;2022-10-31T09:23:52;13.53;;;10.70;;
13704;SDS011;6924;52.122;9.952;2022-10-31T09:26:20;16.23;;;9.90;;
13704;SDS011;6924;52.122;9.952;2022-10-31T09:28:52;18.83;;;11.13;;
13704;SDS011;6924;52.122;9.952;2022-10-31T09:31:19;16.87;;;10.33;;
13704;SDS011;6924;52.122;9.952;2022-10-31T09:33:47;15.83;;;9.83;;
13704;SDS011;6924;52.122;9.952;2022-10-31T09:36:14;15.93;;;9.90;;
13704;SDS011;6924;52.122;9.952;2022-10-31T09:38:41;14.43;;;9.60;;
13704;SDS011;6924;52.122;9.952;2022-10-31T09:41:13;12.00;;;9.93;;
13704;SDS011;6924;52.122;9.952;2022-10-31T09:43:46;13.67;;;9.27;;
13704;SDS011;6924;52.122;9.952;2022-10-31T09:46:24;12.47;;;10.37;;
13704;SDS011;6924;52.122;9.952;2022-10-31T09:49:00;11.47;;;10.20;;
13704;SDS011;6924;52.122;9.952;2022-10-31T09:51:42;13.60;;;10.70;;
13704;SDS011;6924;52.122;9.952;2022-10-31T09:54:12;17.07;;;9.90;;
13704;SDS011;6924;52.122;9.952;2022-10-31T09:56:41;12.13;;;10.40;;
13704;SDS011;6924;52.122;9.952;2022-10-31T09:59:11;13.77;;;10.67;;
13704;SDS011;6924;52.122;9.952;2022-10-31T10:01:46;13.47;;;11.13;;
13704;SDS011;6924;52.122;9.952;2022-10-31T10:04:27;13.40;;;10.67;;
13704;SDS011;6924;52.122;9.952;2022-10-31T10:06:57;13.03;;;10.93;;
13704;SDS011;6924;52.122;9.952;2022-10-31T10:09:25;18.13;;;10.30;;
13704;SDS011;6924;52.122;9.952;2022-10-31T10:11:55;13.73;;;10.80;;
13704;SDS011;6924;52.122;9.952;2022-10-31T10:14:33;16.50;;;10.77;;
13704;SDS011;6924;52.122;9.952;2022-10-31T10:17:19;14.03;;;9.80;;
13704;SDS011;6924;52.122;9.952;2022-10-31T10:20:08;14.00;;;9.77;;
13704;SDS011;6924;52.122;9.952;2022-10-31T10:22:46;16.00;;;9.47;;
13704;SDS011;6924;52.122;9.952;2022-10-31T10:25:20;14.53;;;9.80;;
13704;SDS011;6924;52.122;9.952;2022-10-31T10:27:58;16.67;;;8.83;;
13704;SDS011;6924;52.122;9.952;2022-10-31T10:30:34;13.17;;;9.23;;
13704;SDS011;6924;52.122;9.952;2022-10-31T10:33:09;12.63;;;9.47;;
13704;SDS011;6924;52.122;9.952;2022-10-31T10:35:39;12.87;;;8.90;;
13704;SDS011;6924;52.122;9.952;2022-10-31T10:38:12;15.43;;;8.80;;
13704;SDS011;6924;52.122;9.952;2022-10-31T10:40:43;11.97;;;9.07;;
13704;SDS011;6924;52.122;9.952;2022-10-31T10:43:16;11.10;;;7.53;;
13704;SDS011;6924;52.122;9.952;2022-10-31T10:45:49;11.73;;;7.20;;
13704;SDS011;6924;52.122;9.952;2022-10-31T10:48:43;8.53;;;6.03;;
13704;SDS011;6924;52.122;9.952;2022-10-31T10:51:21;9.60;;;6.97;;
13704;SDS011;6924;52.122;9.952;2022-10-31T10:53:55;9.27;;;6.83;;
13704;SDS011;6924;52.122;9.952;2022-10-31T10:56:45;9.10;;;7.37;;
13704;SDS011;6924;52.122;9.952;2022-10-31T10:59:20;7.00;;;6.30;;
13704;SDS011;6924;52.122;9.952;2022-10-31T11:01:48;7.97;;;6.10;;
13704;SDS011;6924;52.122;9.952;2022-10-31T11:04:26;7.20;;;6.50;;
13704;SDS011;6924;52.122;9.952;2022-10-31T11:06:59;12.13;;;5.57;;
13704;SDS011;6924;52.122;9.952;2022-10-31T11:09:27;10.77;;;5.90;;
13704;SDS011;6924;52.122;9.952;2022-10-31T11:11:54;9.87;;;6.37;;
13704;SDS011;6924;52.122;9.952;2022-10-31T11:14:22;8.07;;;5.47;;
13704;SDS011;6924;52.122;9.952;2022-10-31T11:17:07;9.00;;;5.73;;
13704;SDS011;6924;52.122;9.952;2022-10-31T11:19:47;6.17;;;5.17;;
13704;SDS011;6924;52.122;9.952;2022-10-31T11:22:28;8.83;;;6.43;;
13704;SDS011;6924;52.122;9.952;2022-10-31T11:24:58;9.87;;;7.67;;
13704;SDS011;6924;52.122;9.952;2022-10-31T11:27:25;11.40;;;7.17;;
13704;SDS011;6924;52.122;9.952;2022-10-31T11:30:03;10.47;;;7.83;;
13704;SDS011;6924;52.122;9.952;2022-10-31T11:32:41;9.37;;;6.87;;
13704;SDS011;6924;52.122;9.952;2022-10-31T11:35:16;8.93;;;6.27;;
13704;SDS011;6924;52.122;9.952;2022-10-31T11:37:53;6.53;;;4.70;;
13704;SDS011;6924;52.122;9.952;2022-10-31T11:40:29;11.23;;;5.40;;
13704;SDS011;6924;52.122;9.952;2022-10-31T11:42:56;9.10;;;5.77;;
13704;SDS011;6924;52.122;9.952;2022-10-31T11:45:29;11.43;;;4.87;;
13704;SDS011;6924;52.122;9.952;2022-10-31T11:48:01;6.27;;;5.17;;
13704;SDS011;6924;52.122;9.952;2022-10-31T11:50:33;9.37;;;5.90;;
13704;SDS011;6924;52.122;9.952;2022-10-31T11:53:03;9.13;;;5.33;;
13704;SDS011;6924;52.122;9.952;2022-10-31T11:55:38;8.27;;;5.40;;
13704;SDS011;6924;52.122;9.952;2022-10-31T11:58:18;5.53;;;4.90;;
13704;SDS011;6924;52.122;9.952;2022-10-31T12:00:48;5.73;;;4.13;;
13704;SDS011;6924;52.122;9.952;2022-10-31T12:03:27;5.40;;;4.90;;
13704;SDS011;6924;52.122;9.952;2022-10-31T12:06:05;4.83;;;3.77;;
13704;SDS011;6924;52.122;9.952;2022-10-31T12:08:37;6.07;;;4.07;;
13704;SDS011;6924;52.122;9.952;2022-10-31T12:11:08;8.30;;;5.07;;
13704;SDS011;6924;52.122;9.952;2022-10-31T12:13:42;5.43;;;4.00;;
13704;SDS011;6924;52.122;9.952;2022-10-31T12:16:22;4.40;;;3.93;;
13704;SDS011;6924;52.122;9.952;2022-10-31T12:18:58;6.00;;;3.57;;
13704;SDS011;6924;52.122;9.952;2022-10-31T12:21:32;7.60;;;3.83;;
13704;SDS011;6924;52.122;9.952;2022-10-31T12:24:16;4.13;;;3.13;;
13704;SDS011;6924;52.122;9.952;2022-10-31T12:26:55;5.83;;;4.43;;
13704;SDS011;6924;52.122;9.952;2022-10-31T12:29:34;5.17;;;4.17;;
13704;SDS011;6924;52.122;9.952;2022-10-31T12:32:15;3.60;;;3.13;;
13704;SDS011;6924;52.122;9.952;2022-10-31T12:34:58;4.07;;;3.70;;
13704;SDS011;6924;52.122;9.952;2022-10-31T12:37:41;6.23;;;3.90;;
13704;SDS011;6924;52.122;9.952;2022-10-31T12:40:21;6.83;;;4.60;;
13704;SDS011;6924;52.122;9.952;2022-10-31T12:43:04;6.87;;;5.17;;
13704;SDS011;6924;52.122;9.952;2022-10-31T12:45:44;6.60;;;4.83;;
13704;SDS011;6924;52.122;9.952;2022-10-31T12:48:34;5.87;;;4.30;;
13704;SDS011;6924;52.122;9.952;2022-10-31T12:51:21;5.97;;;4.40;;
13704;SDS011;6924;52.122;9.952;2022-10-31T12:54:00;5.17;;;4.57;;
13704;SDS011;6924;52.122;9.952;2022-10-31T12:56:44;6.10;;;4.40;;
13704;SDS011;6924;52.122;9.952;2022-10-31T12:59:21;5.07;;;4.57;;
13704;SDS011;6924;52.122;9.952;2022-10-31T13:01:55;5.83;;;5.33;;
13704;SDS011;6924;52.122;9.952;2022-10-31T13:04:30;6.20;;;4.83;;
13704;SDS011;6924;52.122;9.952;2022-10-31T13:07:05;6.63;;;4.83;;
13704;SDS011;6924;52.122;9.952;2022-10-31T13:09:40;6.40;;;4.70;;
13704;SDS011;6924;52.122;9.952;2022-10-31T13:12:13;7.77;;;4.33;;
13704;SDS011;6924;52.122;9.952;2022-10-31T13:14:44;8.00;;;4.57;;
13704;SDS011;6924;52.122;9.952;2022-10-31T13:17:16;5.43;;;4.23;;
13704;SDS011;6924;52.122;9.952;2022-10-31T13:19:49;6.43;;;5.47;;
13704;SDS011;6924;52.122;9.952;2022-10-31T13:22:18;5.60;;;4.70;;
13704;SDS011;6924;52.122;9.952;2022-10-31T13:24:50;5.77;;;4.37;;
13704;SDS011;6924;52.122;9.952;2022-10-31T13:27:22;5.77;;;4.17;;
13704;SDS011;6924;52.122;9.952;2022-10-31T13:29:55;6.67;;;4.00;;
13704;SDS011;6924;52.122;9.952;2022-10-31T13:32:28;6.03;;;4.77;;
13704;SDS011;6924;52.122;9.952;2022-10-31T13:35:10;7.07;;;5.27;;
13704;SDS011;6924;52.122;9.952;2022-10-31T13:37:44;6.43;;;4.20;;
13704;SDS011;6924;52.122;9.952;2022-10-31T13:40:20;5.13;;;4.50;;
13704;SDS011;6924;52.122;9.952;2022-10-31T13:42:59;6.70;;;4.07;;
13704;SDS011;6924;52.122;9.952;2022-10-31T13:45:32;4.40;;;4.00;;
13704;SDS011;6924;52.122;9.952;2022-10-31T13:47:59;4.90;;;4.40;;
13704;SDS011;6924;52.122;9.952;2022-10-31T13:50:27;4.97;;;4.37;;
13704;SDS011;6924;52.122;9.952;2022-10-31T13:53:12;5.60;;;3.90;;
13704;SDS011;6924;52.122;9.952;2022-10-31T13:55:41;4.40;;;4.00;;
13704;SDS011;6924;52.122;9.952;2022-10-31T13:58:22;6.23;;;4.23;;
13704;SDS011;6924;52.122;9.952;2022-10-31T14:00:57;7.20;;;3.17;;
13704;SDS011;6924;52.122;9.952;2022-10-31T14:03:37;7.20;;;3.77;;
13704;SDS011;6924;52.122;9.952;2022-10-31T14:06:05;5.93;;;3.83;;
13704;SDS011;6924;52.122;9.952;2022-10-31T14:08:33;4.57;;;3.23;;
13704;SDS011;6924;52.122;9.952;2022-10-31T14:11:03;3.50;;;3.17;;
13704;SDS011;6924;52.122;9.952;2022-10-31T14:13:34;4.87;;;4.37;;
13704;SDS011;6924;52.122;9.952;2022-10-31T14:16:04;8.00;;;4.80;;
13704;SDS011;6924;52.122;9.952;2022-10-31T14:18:33;6.37;;;4.70;;
13704;SDS011;6924;52.122;9.952;2022-10-31T14:21:12;4.70;;;4.17;;
13704;SDS011;6924;52.122;9.952;2022-10-31T14:23:40;8.63;;;4.30;;
13704;SDS011;6924;52.122;9.952;2022-10-31T14:26:19;5.40;;;4.90;;
13704;SDS011;6924;52.122;9.952;2022-10-31T14:28:56;5.53;;;4.50;;
13704;SDS011;6924;52.122;9.952;2022-10-31T14:31:29;5.57;;;4.90;;
13704;SDS011;6924;52.122;9.952;2022-10-31T14:34:01;7.33;;;5.40;;
13704;SDS011;6924;52.122;9.952;2022-10-31T14:36:45;4.93;;;4.43;;
13704;SDS011;6924;52.122;9.952;2022-10-31T14:39:20;8.93;;;5.23;;
13704;SDS011;6924;52.122;9.952;2022-10-31T14:41:58;7.97;;;5.40;;
13704;SDS011;6924;52.122;9.952;2022-10-31T14:44:41;6.30;;;5.67;;
13704;SDS011;6924;52.122;9.952;2022-10-31T14:47:31;8.43;;;6.50;;
13704;SDS011;6924;52.122;9.952;2022-10-31T14:53:08;6.60;;;5.13;;
13704;SDS011;6924;52.122;9.952;2022-10-31T14:55:41;5.80;;;5.03;;
13704;SDS011;6924;52.122;9.952;2022-10-31T14:58:15;6.53;;;5.20;;
13704;SDS011;6924;52.122;9.952;2022-10-31T15:00:46;7.53;;;5.23;;
13704;SDS011;6924;52.122;9.952;2022-10-31T15:03:14;8.40;;;5.50;;
13704;SDS011;6924;52.122;9.952;2022-10-31T15:05:45;6.43;;;4.87;;
13704;SDS011;6924;52.122;9.952;2022-10-31T15:08:25;10.30;;;5.63;;
13704;SDS011;6924;52.122;9.952;2022-10-31T15:10:53;7.27;;;5.37;;
13704;SDS011;6924;52.122;9.952;2022-10-31T15:13:21;6.93;;;4.40;;
13704;SDS011;6924;52.122;9.952;2022-10-31T15:15:48;7.33;;;4.67;;
13704;SDS011;6924;52.122;9.952;2022-10-31T15:18:17;5.73;;;4.43;;
13704;SDS011;6924;52.122;9.952;2022-10-31T15:20:47;6.10;;;4.83;;
13704;SDS011;6924;52.122;9.952;2022-10-31T15:23:16;7.53;;;4.73;;